createdAt,value
2017-09-29T00:01:58.435Z,13.25
2017-09-29T00:05:09.317Z,15.07
2017-09-29T00:08:19.667Z,16.67
2017-09-29T00:11:29.850Z,17.35
2017-09-29T00:14:39.757Z,17.55
2017-09-29T00:17:49.692Z,17.58
2017-09-29T00:21:00.251Z,16.65
2017-09-29T00:24:11.589Z,18.05
2017-09-29T00:27:21.885Z,18.75
2017-09-29T00:30:31.965Z,19.33
2017-09-29T00:33:41.879Z,19.92
2017-09-29T00:36:51.425Z,18.60
2017-09-29T00:40:02.398Z,16.15
2017-09-29T00:43:12.327Z,18.62
2017-09-29T00:46:22.536Z,19.70
2017-09-29T00:49:32.522Z,16.90
2017-09-29T00:52:42.622Z,16.65
2017-09-29T00:55:52.603Z,20.33
2017-09-29T00:59:02.597Z,14.50
2017-09-29T01:02:12.817Z,15.50
2017-09-29T01:05:22.959Z,15.07
2017-09-29T01:08:33.080Z,17.77
2017-09-29T01:11:42.995Z,16.75
2017-09-29T01:14:53.789Z,18.05
2017-09-29T01:18:04.116Z,14.98
2017-09-29T01:21:13.893Z,17.20
2017-09-29T01:24:23.548Z,16.42
2017-09-29T01:27:34.489Z,15.38
2017-09-29T01:30:44.304Z,18.52
2017-09-29T01:33:54.309Z,17.73
2017-09-29T01:37:04.269Z,17.67
2017-09-29T01:40:14.555Z,18.48
2017-09-29T01:43:24.085Z,18.48
2017-09-29T01:46:34.229Z,15.07
2017-09-29T01:49:44.298Z,19.08
2017-09-29T01:52:54.759Z,21.02
2017-09-29T01:56:04.638Z,18.33
2017-09-29T01:59:15.271Z,18.42
2017-09-29T02:02:24.877Z,15.68
2017-09-29T02:05:35.513Z,15.57
2017-09-29T02:08:45.890Z,18.70
2017-09-29T02:11:55.814Z,14.95
2017-09-29T02:15:05.925Z,18.25
2017-09-29T02:18:16.897Z,15.30
2017-09-29T02:21:26.707Z,20.75
2017-09-29T02:24:36.224Z,17.90
2017-09-29T02:27:46.425Z,17.85
2017-09-29T02:30:56.247Z,18.83
2017-09-29T02:34:06.969Z,16.08
2017-09-29T02:37:17.348Z,15.85
2017-09-29T02:40:29.110Z,16.10
2017-09-29T02:43:39.208Z,18.77
2017-09-29T02:46:50.448Z,18.90
2017-09-29T02:50:00.102Z,17.15
2017-09-29T02:53:09.885Z,19.50
2017-09-29T02:56:20.337Z,19.67
2017-09-29T02:59:31.073Z,19.33
2017-09-29T03:02:43.827Z,16.55
2017-09-29T03:05:53.940Z,24.33
2017-09-29T03:09:03.733Z,20.77
2017-09-29T03:12:15.062Z,18.52
2017-09-29T03:15:25.457Z,17.77
2017-09-29T03:18:36.885Z,19.20
2017-09-29T03:21:48.299Z,21.27
2017-09-29T03:24:59.816Z,21.48
2017-09-29T03:28:09.673Z,18.02
2017-09-29T03:31:20.257Z,19.87
2017-09-29T03:34:30.510Z,18.92
2017-09-29T03:37:40.796Z,17.45
2017-09-29T03:40:51.803Z,19.52
2017-09-29T03:44:02.009Z,19.40
2017-09-29T03:47:12.161Z,18.80
2017-09-29T03:50:24.404Z,17.98
2017-09-29T03:53:34.954Z,17.42
2017-09-29T03:56:46.808Z,18.27
2017-09-29T03:59:56.869Z,17.40
2017-09-29T04:03:07.668Z,18.20
2017-09-29T04:06:18.024Z,18.73
2017-09-29T04:09:28.441Z,18.50
2017-09-29T04:12:38.487Z,18.65
2017-09-29T04:15:48.801Z,17.05
2017-09-29T04:18:59.375Z,19.35
2017-09-29T04:22:09.743Z,19.95
2017-09-29T04:25:19.715Z,20.08
2017-09-29T04:28:29.826Z,19.62
2017-09-29T04:31:40.523Z,17.80
2017-09-29T04:34:51.389Z,17.60
2017-09-29T04:38:01.522Z,16.98
2017-09-29T04:41:12.096Z,20.48
2017-09-29T04:44:22.044Z,18.02
2017-09-29T04:47:32.145Z,17.25
2017-09-29T04:50:42.174Z,19.25
2017-09-29T04:53:52.086Z,17.70
2017-09-29T04:57:02.006Z,17.25
2017-09-29T05:00:11.878Z,20.88
2017-09-29T05:03:22.626Z,18.35
2017-09-29T05:06:32.754Z,16.87
2017-09-29T05:09:42.943Z,18.37
2017-09-29T05:12:54.413Z,17.80
2017-09-29T05:16:04.526Z,19.15
2017-09-29T05:19:14.587Z,19.67
2017-09-29T05:22:24.599Z,18.10
2017-09-29T05:25:34.517Z,22.37
2017-09-29T05:28:44.548Z,19.33
2017-09-29T05:31:55.112Z,18.85
2017-09-29T05:35:05.487Z,17.77
2017-09-29T05:38:16.171Z,19.50
2017-09-29T05:41:26.312Z,19.15
2017-09-29T05:44:36.270Z,19.85
2017-09-29T05:47:46.629Z,20.65
2017-09-29T05:50:56.540Z,16.37
2017-09-29T05:54:07.201Z,18.42
2017-09-29T05:57:17.324Z,21.40
2017-09-29T06:00:27.179Z,18.67
2017-09-29T06:03:38.454Z,18.60
2017-09-29T06:06:48.450Z,20.75
2017-09-29T06:09:58.393Z,17.80
2017-09-29T06:13:09.500Z,17.30
2017-09-29T06:16:19.343Z,20.80
2017-09-29T06:19:29.454Z,14.20
2017-09-29T06:22:40.210Z,16.15
2017-09-29T06:25:50.459Z,19.05
2017-09-29T06:29:00.547Z,18.60
2017-09-29T06:32:11.321Z,14.48
2017-09-29T06:35:21.387Z,20.27
2017-09-29T06:38:31.292Z,16.87
2017-09-29T06:41:42.002Z,21.00
2017-09-29T06:44:52.825Z,18.35
2017-09-29T06:48:02.933Z,18.52
2017-09-29T06:51:12.776Z,22.62
2017-09-29T06:54:23.657Z,19.42
2017-09-29T06:57:34.822Z,19.35
2017-09-29T07:00:44.773Z,13.23
2017-09-29T07:03:55.389Z,18.05
2017-09-29T07:07:05.265Z,18.87
2017-09-29T07:10:15.628Z,19.33
2017-09-29T07:13:26.138Z,20.52
2017-09-29T07:16:37.034Z,17.30
2017-09-29T07:19:47.435Z,18.27
2017-09-29T07:22:58.021Z,19.30
2017-09-29T07:26:09.630Z,15.20
2017-09-29T07:29:22.741Z,19.08
2017-09-29T07:32:34.044Z,22.05
2017-09-29T07:35:44.543Z,19.40
2017-09-29T07:38:54.787Z,20.00
2017-09-29T07:42:05.414Z,19.67
2017-09-29T07:45:16.417Z,18.50
2017-09-29T07:48:26.446Z,16.02
2017-09-29T07:51:36.989Z,17.05
2017-09-29T07:54:47.277Z,15.07
2017-09-29T07:57:57.411Z,21.12
2017-09-29T08:01:07.350Z,19.00
2017-09-29T08:04:18.254Z,14.27
2017-09-29T08:07:28.278Z,17.67
2017-09-29T08:10:38.364Z,14.52
2017-09-29T08:13:48.773Z,19.10
2017-09-29T08:16:58.860Z,14.15
2017-09-29T08:20:09.573Z,13.90
2017-09-29T08:23:19.718Z,32.38
2017-09-29T08:26:29.705Z,14.30
2017-09-29T08:29:39.526Z,19.15
2017-09-29T08:32:51.267Z,16.40
2017-09-29T08:36:01.599Z,15.50
2017-09-29T08:39:11.759Z,15.90
2017-09-29T08:42:22.496Z,15.65
2017-09-29T08:45:32.416Z,17.87
2017-09-29T08:48:43.287Z,15.32
2017-09-29T08:51:53.772Z,14.63
2017-09-29T08:55:03.664Z,15.90
2017-09-29T08:58:13.984Z,18.17
2017-09-29T09:01:24.720Z,18.35
2017-09-29T09:04:34.633Z,14.00
2017-09-29T09:07:44.818Z,17.65
2017-09-29T09:10:54.850Z,14.75
2017-09-29T09:14:04.949Z,15.30
2017-09-29T09:17:15.236Z,18.33
2017-09-29T09:20:26.040Z,14.77
2017-09-29T09:23:36.507Z,14.48
2017-09-29T09:26:47.104Z,15.02
2017-09-29T09:29:57.221Z,17.23
2017-09-29T09:33:07.753Z,31.15
2017-09-29T09:36:18.721Z,15.38
2017-09-29T09:39:29.116Z,16.85
2017-09-29T09:42:39.052Z,24.52
2017-09-29T09:45:48.951Z,14.50
2017-09-29T09:48:58.693Z,17.75
2017-09-29T09:52:08.664Z,14.82
2017-09-29T09:55:19.010Z,14.10
2017-09-29T09:58:29.416Z,15.90
2017-09-29T10:01:40.104Z,15.70
2017-09-29T10:04:50.072Z,13.93
2017-09-29T10:08:00.341Z,12.10
2017-09-29T10:11:10.451Z,14.07
2017-09-29T10:14:20.681Z,14.68
2017-09-29T10:17:30.957Z,13.85
2017-09-29T10:20:40.922Z,17.50
2017-09-29T10:23:52.200Z,16.60
2017-09-29T10:27:02.062Z,14.82
2017-09-29T10:30:11.442Z,15.23
2017-09-29T10:33:21.949Z,13.60
2017-09-29T10:36:31.997Z,15.68
2017-09-29T10:39:42.076Z,13.05
2017-09-29T10:42:52.142Z,15.43
2017-09-29T10:46:02.056Z,11.05
2017-09-29T10:49:12.775Z,13.32
2017-09-29T10:52:23.206Z,15.80
2017-09-29T10:55:33.312Z,14.32
2017-09-29T10:58:43.135Z,16.92
2017-09-29T11:01:53.211Z,13.20
2017-09-29T11:05:03.219Z,11.25
2017-09-29T11:08:13.176Z,23.38
2017-09-29T11:11:23.104Z,15.23
2017-09-29T11:14:33.039Z,13.30
2017-09-29T11:17:42.812Z,13.65
2017-09-29T11:20:52.918Z,16.50
2017-09-29T11:24:03.440Z,16.45
2017-09-29T11:27:13.624Z,13.13
2017-09-29T11:30:23.551Z,14.82
2017-09-29T11:33:33.401Z,12.68
2017-09-29T11:36:43.486Z,13.98
2017-09-29T11:39:53.752Z,12.80
2017-09-29T11:43:03.759Z,13.25
2017-09-29T11:46:13.706Z,12.85
2017-09-29T11:49:23.774Z,16.27
2017-09-29T11:52:34.256Z,15.63
2017-09-29T11:55:44.487Z,18.30
2017-09-29T11:58:54.560Z,14.18
2017-09-29T12:02:04.451Z,15.27
2017-09-29T12:05:15.242Z,12.10
2017-09-29T12:08:29.136Z,12.73
2017-09-29T12:11:39.412Z,11.15
2017-09-29T12:14:49.401Z,17.23
2017-09-29T12:17:59.439Z,11.27
2017-09-29T12:21:09.604Z,11.18
2017-09-29T12:24:19.558Z,13.55
2017-09-29T12:27:29.282Z,12.00
2017-09-29T12:30:39.456Z,11.32
2017-09-29T12:33:50.175Z,10.18
2017-09-29T12:37:00.368Z,13.30
2017-09-29T12:40:10.184Z,10.43
2017-09-29T12:43:20.601Z,10.90
2017-09-29T12:46:30.383Z,11.20
2017-09-29T12:49:47.820Z,12.02
2017-09-29T12:52:58.305Z,12.63
2017-09-29T12:56:08.548Z,10.65
2017-09-29T12:59:18.645Z,10.55
2017-09-29T13:02:28.594Z,7.82
2017-09-29T13:05:38.984Z,10.30
2017-09-29T13:08:49.910Z,10.50
2017-09-29T13:12:04.049Z,8.68
2017-09-29T13:15:15.036Z,12.65
2017-09-29T13:18:25.381Z,9.35
2017-09-29T13:21:35.388Z,10.90
2017-09-29T13:24:46.201Z,8.30
2017-09-29T13:27:56.638Z,9.65
2017-09-29T13:31:06.422Z,9.38
2017-09-29T13:34:16.373Z,8.68
2017-09-29T13:37:27.096Z,9.15
2017-09-29T13:40:37.363Z,8.55
2017-09-29T13:43:47.345Z,9.25
2017-09-29T13:46:56.952Z,10.48
2017-09-29T13:50:07.114Z,9.75
2017-09-29T13:53:17.016Z,9.95
2017-09-29T13:56:26.910Z,11.63
2017-09-29T13:59:36.992Z,10.63
2017-09-29T14:02:47.135Z,12.32
2017-09-29T14:05:56.969Z,12.20
2017-09-29T14:09:06.829Z,11.63
2017-09-29T14:12:18.140Z,12.30
2017-09-29T14:15:28.838Z,10.65
2017-09-29T14:18:39.869Z,13.95
2017-09-29T14:21:49.990Z,15.27
2017-09-29T14:25:02.178Z,11.32
2017-09-29T14:28:13.207Z,12.27
2017-09-29T14:31:23.776Z,11.98
2017-09-29T14:34:33.841Z,10.90
2017-09-29T14:37:44.490Z,10.25
2017-09-29T14:40:54.455Z,9.55
2017-09-29T14:44:05.078Z,10.32
2017-09-29T14:47:15.033Z,9.15
2017-09-29T14:50:26.700Z,9.75
2017-09-29T14:53:36.808Z,9.68
2017-09-29T14:56:46.611Z,9.63
2017-09-29T14:59:56.790Z,9.43
2017-09-29T15:03:06.549Z,9.63
2017-09-29T15:06:16.300Z,9.65
2017-09-29T15:09:26.046Z,8.18
2017-09-29T15:12:36.160Z,6.22
2017-09-29T15:15:46.824Z,7.72
2017-09-29T15:18:56.600Z,7.53
2017-09-29T15:22:06.682Z,7.50
2017-09-29T15:25:16.518Z,6.78
2017-09-29T15:28:26.697Z,9.35
2017-09-29T15:31:36.424Z,9.48
2017-09-29T15:34:46.433Z,9.05
2017-09-29T15:37:56.439Z,10.45
2017-09-29T15:41:06.296Z,9.82
2017-09-29T15:44:16.246Z,9.48
2017-09-29T15:47:26.249Z,9.73
2017-09-29T15:50:36.091Z,10.38
2017-09-29T15:53:46.624Z,10.07
2017-09-29T15:56:57.016Z,7.65
2017-09-29T16:00:06.898Z,10.13
2017-09-29T16:03:16.609Z,8.70
2017-09-29T16:06:27.811Z,9.77
2017-09-29T16:09:38.205Z,9.32
2017-09-29T16:12:48.165Z,8.93
2017-09-29T16:15:58.196Z,8.93
2017-09-29T16:19:10.275Z,8.60
2017-09-29T16:22:22.525Z,10.00
2017-09-29T16:25:34.112Z,14.48
2017-09-29T16:28:44.756Z,12.20
2017-09-29T16:31:55.226Z,11.00
2017-09-29T16:35:05.528Z,12.90
2017-09-29T16:38:15.936Z,13.45
2017-09-29T16:41:26.090Z,12.18
2017-09-29T16:44:36.360Z,11.50
2017-09-29T16:47:46.808Z,11.63
2017-09-29T16:50:56.780Z,25.25
2017-09-29T16:54:06.546Z,16.33
2017-09-29T16:57:16.508Z,11.05
2017-09-29T17:00:26.399Z,11.20
2017-09-29T17:03:36.236Z,14.63
2017-09-29T17:06:46.605Z,17.05
2017-09-29T17:09:57.983Z,10.77
2017-09-29T17:13:08.263Z,12.68
2017-09-29T17:16:18.384Z,13.23
2017-09-29T17:19:28.551Z,12.60
2017-09-29T17:22:38.516Z,10.48
2017-09-29T17:25:48.394Z,8.90
2017-09-29T17:28:58.453Z,14.13
2017-09-29T17:32:08.563Z,10.30
2017-09-29T17:35:18.696Z,12.00
2017-09-29T17:38:29.518Z,9.95
2017-09-29T17:41:39.768Z,11.30
2017-09-29T17:44:50.033Z,10.73
2017-09-29T17:48:02.875Z,12.37
2017-09-29T17:51:14.478Z,14.50
2017-09-29T17:54:25.439Z,14.73
2017-09-29T17:57:36.588Z,14.30
2017-09-29T18:00:47.408Z,13.48
2017-09-29T18:03:57.654Z,14.70
2017-09-29T18:07:07.895Z,17.02
2017-09-29T18:10:19.204Z,19.45
2017-09-29T18:13:30.362Z,13.27
2017-09-29T18:16:41.292Z,16.08
2017-09-29T18:19:52.296Z,16.85
2017-09-29T18:23:04.186Z,19.60
2017-09-29T18:26:14.139Z,22.00
2017-09-29T18:29:25.012Z,17.98
2017-09-29T18:32:35.145Z,14.27
2017-09-29T18:35:46.146Z,20.88
2017-09-29T18:38:57.150Z,18.77
2017-09-29T18:42:08.436Z,19.50
2017-09-29T18:45:19.548Z,15.77
2017-09-29T18:48:30.061Z,12.75
2017-09-29T18:51:40.971Z,14.90
2017-09-29T18:54:50.968Z,14.75
2017-09-29T18:58:02.601Z,15.85
2017-09-29T19:01:13.505Z,15.60
2017-09-29T19:04:23.870Z,15.82
2017-09-29T19:07:34.117Z,14.75
2017-09-29T19:10:44.970Z,18.98
2017-09-29T19:13:56.168Z,16.23
2017-09-29T19:17:06.947Z,19.25
2017-09-29T19:20:17.686Z,13.95
2017-09-29T19:23:28.041Z,14.85
2017-09-29T19:26:38.187Z,17.25
2017-09-29T19:29:48.961Z,15.57
2017-09-29T19:32:59.205Z,14.30
2017-09-29T19:36:12.440Z,15.73
2017-09-29T19:39:28.853Z,18.12
2017-09-29T19:42:40.156Z,13.62
2017-09-29T19:45:53.910Z,15.80
2017-09-29T19:49:04.987Z,15.60
2017-09-29T19:52:15.309Z,16.77
2017-09-29T19:55:26.943Z,13.30
2017-09-29T19:58:37.062Z,15.65
2017-09-29T20:01:47.894Z,14.50
2017-09-29T20:04:58.246Z,12.90
2017-09-29T20:08:08.318Z,14.40
2017-09-29T20:11:18.574Z,17.50
2017-09-29T20:14:28.596Z,17.50
2017-09-29T20:17:39.067Z,15.98
2017-09-29T20:20:49.694Z,14.15
2017-09-29T20:23:59.706Z,19.08
2017-09-29T20:27:10.547Z,17.77
2017-09-29T20:30:20.534Z,18.08
2017-09-29T20:33:30.626Z,16.98
2017-09-29T20:36:41.315Z,14.48
2017-09-29T20:39:51.519Z,17.62
2017-09-29T20:43:02.204Z,17.27
2017-09-29T20:46:12.972Z,20.55
2017-09-29T20:49:23.625Z,17.50
2017-09-29T20:52:34.186Z,16.27
2017-09-29T20:55:44.171Z,18.55
2017-09-29T20:58:54.308Z,14.90
2017-09-29T21:02:04.750Z,18.10
2017-09-29T21:05:15.050Z,15.73
2017-09-29T21:08:40.562Z,15.27
2017-09-29T21:11:57.550Z,17.27
2017-09-29T21:18:49.446Z,15.93
2017-09-29T21:22:00.474Z,18.30
2017-09-29T21:25:10.508Z,16.25
2017-09-29T21:28:22.330Z,17.60
2017-09-29T21:31:32.478Z,19.37
2017-09-29T21:34:43.702Z,17.65
2017-09-29T21:37:54.270Z,15.35
2017-09-29T21:41:05.136Z,16.35
2017-09-29T21:44:17.728Z,16.17
2017-09-29T21:47:30.242Z,18.40
2017-09-29T21:50:43.485Z,17.30
2017-09-29T21:53:54.488Z,16.27
2017-09-29T21:57:04.818Z,17.55
2017-09-29T22:00:23.412Z,17.00
2017-09-29T22:03:34.541Z,19.30
2017-09-29T22:06:45.628Z,17.58
2017-09-29T22:09:56.597Z,17.75
2017-09-29T22:13:07.530Z,16.00
2017-09-29T22:16:18.458Z,16.92
2017-09-29T22:19:29.048Z,17.77
2017-09-29T22:22:39.710Z,16.40
2017-09-29T22:25:51.375Z,14.87
2017-09-29T22:29:01.624Z,20.33
2017-09-29T22:32:11.514Z,17.30
2017-09-29T22:35:22.346Z,14.43
2017-09-29T22:38:33.389Z,19.40
2017-09-29T22:41:44.252Z,17.67
2017-09-29T22:44:55.254Z,18.37
2017-09-29T22:48:05.864Z,16.77
2017-09-29T22:51:16.134Z,17.10
2017-09-29T22:54:27.634Z,16.50
2017-09-29T22:57:38.577Z,15.20
2017-09-29T23:00:50.334Z,13.32
2017-09-29T23:04:00.759Z,19.58
2017-09-29T23:07:12.541Z,16.75
2017-09-29T23:10:23.462Z,17.40
2017-09-29T23:13:34.098Z,14.82
2017-09-29T23:16:44.886Z,17.62
2017-09-29T23:19:55.694Z,17.30
2017-09-29T23:23:05.796Z,17.00
2017-09-29T23:26:16.369Z,15.50
2017-09-29T23:29:27.137Z,15.25
2017-09-29T23:32:37.343Z,15.07
2017-09-29T23:35:47.367Z,16.12
2017-09-29T23:38:57.225Z,14.70
2017-09-29T23:42:07.379Z,14.77
2017-09-29T23:45:18.121Z,14.00
2017-09-29T23:48:29.121Z,13.50
2017-09-29T23:51:39.725Z,15.20
2017-09-29T23:54:51.317Z,14.07
2017-09-29T23:58:01.765Z,12.65
